createdAt,value
2019-04-01T00:01:13.793Z,98999.74
2019-04-01T00:03:49.893Z,98999.74
2019-04-01T00:06:23.058Z,99004.90
2019-04-01T00:08:55.817Z,99012.98
2019-04-01T00:11:29.000Z,99014.69
2019-04-01T00:14:02.344Z,99003.61
2019-04-01T00:16:34.073Z,99013.13
2019-04-01T00:19:06.084Z,99012.98
2019-04-01T00:21:40.029Z,99018.56
2019-04-01T00:24:14.174Z,99011.39
2019-04-01T00:26:46.101Z,99005.94
2019-04-01T00:29:18.050Z,99006.10
2019-04-01T00:31:53.867Z,99006.78
2019-04-01T00:34:28.655Z,99013.50
2019-04-01T00:37:01.054Z,99006.58
2019-04-01T00:39:34.581Z,99007.98
2019-04-01T00:42:19.543Z,99011.82
2019-04-01T00:44:52.212Z,99007.72
2019-04-01T00:47:27.983Z,99010.88
2019-04-01T00:50:04.159Z,99010.66
2019-04-01T00:52:45.585Z,99006.38
2019-04-01T00:55:20.873Z,99001.61
2019-04-01T00:57:54.221Z,99005.71
2019-04-01T01:00:28.349Z,99008.85
2019-04-01T01:03:01.395Z,99006.64
2019-04-01T01:05:35.241Z,99013.88
2019-04-01T01:08:08.750Z,99010.36
2019-04-01T01:10:45.751Z,99012.72
2019-04-01T01:13:19.625Z,99013.59
2019-04-01T01:15:52.916Z,99014.38
2019-04-01T01:18:29.255Z,99017.25
2019-04-01T01:21:02.220Z,99028.41
2019-04-01T01:23:35.217Z,99023.34
2019-04-01T01:26:11.072Z,99024.33
2019-04-01T01:28:43.354Z,99026.81
2019-04-01T01:31:22.924Z,99029.65
2019-04-01T01:34:02.623Z,99023.91
2019-04-01T01:36:35.594Z,99025.57
2019-04-01T01:39:24.443Z,99031.99
2019-04-01T01:42:07.044Z,99027.66
2019-04-01T01:44:44.249Z,99045.23
2019-04-01T01:47:26.229Z,99034.67
2019-04-01T01:50:03.609Z,99054.53
2019-04-01T01:52:48.434Z,99042.69
2019-04-01T01:55:23.937Z,99037.64
2019-04-01T01:57:55.271Z,99028.21
2019-04-01T02:00:54.445Z,99035.02
2019-04-01T02:03:27.682Z,99033.61
2019-04-01T02:06:01.524Z,99033.61
2019-04-01T02:08:34.378Z,99046.58
2019-04-01T02:11:07.440Z,99042.72
2019-04-01T02:13:40.443Z,99053.52
2019-04-01T02:16:16.029Z,99066.06
2019-04-01T02:18:48.495Z,99052.37
2019-04-01T02:21:22.509Z,99063.98
2019-04-01T02:23:55.463Z,99052.73
2019-04-01T02:26:28.498Z,99057.70
2019-04-01T02:29:01.495Z,99055.69
2019-04-01T02:31:34.879Z,99068.18
2019-04-01T02:34:09.263Z,99060.09
2019-04-01T02:36:40.587Z,99054.36
2019-04-01T02:39:13.807Z,99054.01
2019-04-01T02:41:46.619Z,99056.56
2019-04-01T02:44:19.928Z,99059.70
2019-04-01T02:46:53.639Z,99054.10
2019-04-01T02:49:25.668Z,99061.81
2019-04-01T02:51:58.948Z,99061.63
2019-04-01T02:54:33.578Z,99064.30
2019-04-01T02:57:05.845Z,99068.82
2019-04-01T02:59:37.610Z,99065.78
2019-04-01T03:02:13.119Z,99061.16
2019-04-01T03:04:45.437Z,99061.98
2019-04-01T03:07:22.121Z,99069.94
2019-04-01T03:09:56.130Z,99072.06
2019-04-01T03:12:29.795Z,99073.59
2019-04-01T03:15:04.773Z,99078.37
2019-04-01T03:17:38.548Z,99086.32
2019-04-01T03:20:14.314Z,99083.01
2019-04-01T03:22:51.115Z,99085.41
2019-04-01T03:25:23.980Z,99094.67
2019-04-01T03:27:57.669Z,99083.84
2019-04-01T03:30:31.304Z,99088.78
2019-04-01T03:33:02.818Z,99090.11
2019-04-01T03:35:40.936Z,99092.56
2019-04-01T03:38:14.272Z,99087.81
2019-04-01T03:40:46.988Z,99094.20
2019-04-01T03:43:20.119Z,99090.94
2019-04-01T03:46:01.686Z,99089.61
2019-04-01T03:48:34.939Z,99086.94
2019-04-01T03:51:08.246Z,99094.08
2019-04-01T03:53:41.165Z,99091.81
2019-04-01T03:56:13.038Z,99101.56
2019-04-01T03:58:48.600Z,99104.72
2019-04-01T04:01:22.117Z,99100.58
2019-04-01T04:03:55.215Z,99106.73
2019-04-01T04:06:28.034Z,99103.13
2019-04-01T04:09:02.139Z,99099.90
2019-04-01T04:11:35.771Z,99093.75
2019-04-01T04:14:07.339Z,99093.75
2019-04-01T04:16:40.977Z,99113.73
2019-04-01T04:19:17.417Z,99107.47
2019-04-01T04:21:48.947Z,99111.23
2019-04-01T04:24:22.736Z,99129.31
2019-04-01T04:26:57.440Z,99108.66
2019-04-01T04:29:29.163Z,99124.19
2019-04-01T04:32:02.325Z,99124.19
2019-04-01T04:34:37.240Z,99120.08
2019-04-01T04:37:11.207Z,99119.89
2019-04-01T04:39:43.859Z,99116.17
2019-04-01T04:42:19.772Z,99119.28
2019-04-01T04:44:52.259Z,99120.89
2019-04-01T04:47:27.172Z,99122.67
2019-04-01T04:50:01.350Z,99121.50
2019-04-01T04:52:34.240Z,99125.34
2019-04-01T04:55:07.291Z,99124.01
2019-04-01T04:57:43.100Z,99127.36
2019-04-01T05:00:16.920Z,99121.22
2019-04-01T05:02:49.307Z,99126.91
2019-04-01T05:05:22.447Z,99132.23
2019-04-01T05:07:57.257Z,99137.64
2019-04-01T05:10:33.391Z,99138.70
2019-04-01T05:13:07.982Z,99136.62
2019-04-01T05:15:41.788Z,99146.53
2019-04-01T05:18:15.971Z,99144.62
2019-04-01T05:20:50.707Z,99151.65
2019-04-01T05:23:25.686Z,99156.73
2019-04-01T05:26:01.986Z,99153.36
2019-04-01T05:28:35.310Z,99149.80
2019-04-01T05:31:09.455Z,99160.84
2019-04-01T05:33:55.209Z,99161.05
2019-04-01T05:36:20.520Z,99162.44
2019-04-01T05:38:54.555Z,99169.34
2019-04-01T05:41:28.965Z,99173.77
2019-04-01T05:44:02.384Z,99175.09
2019-04-01T05:46:34.308Z,99171.69
2019-04-01T05:49:09.388Z,99177.47
2019-04-01T05:51:48.779Z,99180.42
2019-04-01T05:54:20.420Z,99190.25
2019-04-01T05:56:52.397Z,99179.68
2019-04-01T05:59:28.952Z,99191.21
2019-04-01T06:02:00.367Z,99181.83
2019-04-01T06:04:31.974Z,99191.21
2019-04-01T06:07:04.483Z,99187.02
2019-04-01T06:09:37.797Z,99196.03
2019-04-01T06:12:12.068Z,99187.97
2019-04-01T06:14:48.074Z,99197.86
2019-04-01T06:17:21.791Z,99200.83
2019-04-01T06:19:54.547Z,99198.89
2019-04-01T06:22:28.578Z,99207.05
2019-04-01T06:25:01.879Z,99212.20
2019-04-01T06:27:37.393Z,99206.05
2019-04-01T06:30:10.813Z,99199.19
2019-04-01T06:32:43.695Z,99201.55
2019-04-01T06:35:17.714Z,99201.55
2019-04-01T06:37:49.771Z,99219.16
2019-04-01T06:40:22.164Z,99209.47
2019-04-01T06:42:55.581Z,99214.47
2019-04-01T06:45:28.168Z,99213.08
2019-04-01T06:48:01.672Z,99209.96
2019-04-01T06:50:36.354Z,99209.06
2019-04-01T06:53:07.837Z,99206.66
2019-04-01T06:55:41.857Z,99208.14
2019-04-01T06:58:14.297Z,99207.99
2019-04-01T07:00:47.143Z,99201.98
2019-04-01T07:03:20.855Z,99206.86
2019-04-01T07:05:53.130Z,99212.79
2019-04-01T07:08:25.747Z,99216.28
2019-04-01T07:10:59.642Z,99215.59
2019-04-01T07:13:31.745Z,99216.66
2019-04-01T07:16:16.211Z,99221.77
2019-04-01T07:18:50.019Z,99214.80
2019-04-01T07:21:23.326Z,99217.88
2019-04-01T07:23:57.625Z,99213.72
2019-04-01T07:26:32.328Z,99208.53
2019-04-01T07:29:05.930Z,99214.38
2019-04-01T07:31:39.446Z,99210.28
2019-04-01T07:34:18.101Z,99212.59
2019-04-01T07:36:56.566Z,99213.80
2019-04-01T07:39:31.359Z,99204.83
2019-04-01T07:42:03.360Z,99205.02
2019-04-01T07:44:45.185Z,99205.47
2019-04-01T07:47:23.035Z,99209.84
2019-04-01T07:49:57.791Z,99208.11
2019-04-01T07:52:32.242Z,99207.42
2019-04-01T07:55:05.420Z,99213.88
2019-04-01T07:57:42.221Z,99214.44
2019-04-01T08:00:18.894Z,99204.56
2019-04-01T08:02:55.676Z,99203.86
2019-04-01T08:05:29.593Z,99199.42
2019-04-01T08:08:03.584Z,99202.63
2019-04-01T08:10:36.197Z,99192.44
2019-04-01T08:13:09.808Z,99214.57
2019-04-01T08:15:45.493Z,99207.02
2019-04-01T08:18:17.916Z,99202.44
2019-04-01T08:20:53.666Z,99210.89
2019-04-01T08:23:28.624Z,99196.11
2019-04-01T08:26:02.548Z,99203.75
2019-04-01T08:28:35.143Z,99194.41
2019-04-01T08:31:08.082Z,99197.34
2019-04-01T08:33:42.035Z,99197.34
2019-04-01T08:36:16.048Z,99190.66
2019-04-01T08:38:50.257Z,99191.73
2019-04-01T08:41:24.746Z,99186.52
2019-04-01T08:43:56.356Z,99193.06
2019-04-01T08:46:27.758Z,99194.16
2019-04-01T08:48:59.808Z,99181.77
2019-04-01T08:51:31.585Z,99183.77
2019-04-01T08:54:04.140Z,99193.86
2019-04-01T08:56:38.065Z,99188.11
2019-04-01T08:59:09.154Z,99182.05
2019-04-01T09:01:41.321Z,99177.38
2019-04-01T09:04:14.415Z,99176.63
2019-04-01T09:06:48.103Z,99170.25
2019-04-01T09:09:20.206Z,99164.02
2019-04-01T09:11:54.817Z,99157.43
2019-04-01T09:14:32.470Z,99167.88
2019-04-01T09:17:04.591Z,99164.88
2019-04-01T09:19:40.303Z,99158.27
2019-04-01T09:22:15.964Z,99158.33
2019-04-01T09:24:49.595Z,99155.42
2019-04-01T09:27:23.338Z,99146.38
2019-04-01T09:29:56.365Z,99144.11
2019-04-01T09:32:28.377Z,99144.11
2019-04-01T09:35:01.451Z,99142.73
2019-04-01T09:37:34.524Z,99140.50
2019-04-01T09:40:07.323Z,99143.63
2019-04-01T09:42:42.515Z,99144.50
2019-04-01T09:45:14.603Z,99132.13
2019-04-01T09:47:47.326Z,99130.98
2019-04-01T09:50:21.396Z,99131.21
2019-04-01T09:52:55.375Z,99126.51
2019-04-01T09:55:28.508Z,99132.04
2019-04-01T09:58:02.592Z,99118.34
2019-04-01T10:00:36.145Z,99132.84
2019-04-01T10:03:08.569Z,99132.84
2019-04-01T10:05:40.543Z,99107.66
2019-04-01T10:08:13.618Z,99112.94
2019-04-01T10:10:48.391Z,99114.33
2019-04-01T10:13:22.434Z,99100.00
2019-04-01T10:15:55.125Z,99111.72
2019-04-01T10:18:28.571Z,99095.03
2019-04-01T10:21:05.666Z,99095.42
2019-04-01T10:23:41.687Z,99097.62
2019-04-01T10:26:13.867Z,99085.90
2019-04-01T10:28:49.345Z,99085.17
2019-04-01T10:31:21.514Z,99074.83
2019-04-01T10:33:53.716Z,99077.34
2019-04-01T10:36:28.439Z,99066.32
2019-04-01T10:39:01.874Z,99060.36
2019-04-01T10:41:36.992Z,99064.63
2019-04-01T10:44:10.523Z,99067.12
2019-04-01T10:46:43.861Z,99059.02
2019-04-01T10:49:16.904Z,99057.19
2019-04-01T10:51:49.867Z,99053.94
2019-04-01T10:54:25.686Z,99062.28
2019-04-01T10:56:59.079Z,99056.81
2019-04-01T10:59:31.509Z,99053.35
2019-04-01T11:02:03.853Z,99054.64
2019-04-01T11:04:37.453Z,99053.17
2019-04-01T11:07:10.955Z,99041.39
2019-04-01T11:09:44.974Z,99045.95
2019-04-01T11:12:17.626Z,99050.27
2019-04-01T11:14:49.895Z,99036.52
2019-04-01T11:17:25.047Z,99033.53
2019-04-01T11:19:58.958Z,99026.57
2019-04-01T11:22:31.952Z,99041.39
2019-04-01T11:25:05.527Z,99034.38
2019-04-01T11:27:38.244Z,99029.00
2019-04-01T11:30:13.698Z,99023.37
2019-04-01T11:32:44.839Z,99024.41
2019-04-01T11:35:17.336Z,99009.85
2019-04-01T11:37:52.182Z,99009.34
2019-04-01T11:40:27.121Z,98998.55
2019-04-01T11:43:05.087Z,98997.73
2019-04-01T11:45:43.081Z,98986.13
2019-04-01T11:48:19.036Z,98989.45
2019-04-01T11:50:53.846Z,98982.63
2019-04-01T11:53:26.981Z,98964.05
2019-04-01T11:56:02.253Z,98966.22
2019-04-01T11:58:35.038Z,98965.95
2019-04-01T12:01:08.010Z,98953.36
2019-04-01T12:03:42.779Z,98968.95
2019-04-01T12:06:18.975Z,98950.14
2019-04-01T12:08:52.931Z,98944.45
2019-04-01T12:11:26.231Z,98942.25
2019-04-01T12:14:05.112Z,98946.07
2019-04-01T12:16:38.204Z,98941.80
2019-04-01T12:19:11.223Z,98938.88
2019-04-01T12:21:46.714Z,98932.06
2019-04-01T12:24:21.696Z,98949.91
2019-04-01T12:26:54.903Z,98931.91
2019-04-01T12:29:29.140Z,98924.87
2019-04-01T12:32:02.313Z,98924.29
2019-04-01T12:34:35.491Z,98921.91
2019-04-01T12:37:10.883Z,98910.87
2019-04-01T12:39:48.628Z,98916.16
2019-04-01T12:42:21.456Z,98923.19
2019-04-01T12:44:54.167Z,98918.87
2019-04-01T12:47:28.321Z,98911.41
2019-04-01T12:50:06.768Z,98903.34
2019-04-01T12:52:38.842Z,98904.66
2019-04-01T12:55:14.379Z,98890.97
2019-04-01T12:57:50.743Z,98891.76
2019-04-01T13:00:24.070Z,98885.89
2019-04-01T13:02:58.454Z,98886.11
2019-04-01T13:05:31.997Z,98897.90
2019-04-01T13:08:14.532Z,98872.02
2019-04-01T13:10:48.680Z,98885.19
2019-04-01T13:13:24.175Z,98877.77
2019-04-01T13:15:56.304Z,98862.97
2019-04-01T13:18:29.660Z,98871.89
2019-04-01T13:21:07.029Z,98857.20
2019-04-01T13:23:50.108Z,98855.18
2019-04-01T13:26:21.566Z,98852.91
2019-04-01T13:28:54.947Z,98861.80
2019-04-01T13:31:33.304Z,98880.92
2019-04-01T13:34:05.471Z,98854.09
2019-04-01T13:36:38.906Z,98858.03
2019-04-01T13:39:19.706Z,98853.19
2019-04-01T13:42:00.139Z,98844.77
2019-04-01T13:44:37.183Z,98845.95
2019-04-01T13:47:09.060Z,98844.59
2019-04-01T13:49:42.481Z,98839.18
2019-04-01T13:52:21.971Z,98839.21
2019-04-01T13:55:12.215Z,98836.00
2019-04-01T13:58:01.763Z,98832.48
2019-04-01T14:00:37.700Z,98836.97
2019-04-01T14:03:13.399Z,98840.56
2019-04-01T14:05:51.361Z,98836.48
2019-04-01T14:08:31.131Z,98828.21
2019-04-01T14:11:25.328Z,98823.03
2019-04-01T14:14:07.925Z,98822.63
2019-04-01T14:16:44.182Z,98828.02
2019-04-01T14:19:22.511Z,98821.38
2019-04-01T14:21:59.816Z,98819.70
2019-04-01T14:24:34.355Z,98812.01
2019-04-01T14:27:10.140Z,98817.88
2019-04-01T14:29:48.465Z,98799.03
2019-04-01T14:32:23.696Z,98804.97
2019-04-01T14:34:58.331Z,98807.98
2019-04-01T14:37:34.521Z,98820.14
2019-04-01T14:40:18.283Z,98796.66
2019-04-01T14:42:51.925Z,98802.80
2019-04-01T14:45:27.714Z,98796.07
2019-04-01T14:48:08.873Z,98794.69
2019-04-01T14:50:44.723Z,98795.63
2019-04-01T14:53:30.111Z,98791.36
2019-04-01T14:56:02.686Z,98796.47
2019-04-01T14:58:38.195Z,98793.26
2019-04-01T15:01:18.154Z,98790.88
2019-04-01T15:03:54.228Z,98779.80
2019-04-01T15:06:28.943Z,98792.75
2019-04-01T15:09:02.872Z,98784.42
2019-04-01T15:11:58.384Z,98769.66
2019-04-01T15:14:33.253Z,98779.14
2019-04-01T15:17:09.337Z,98776.69
2019-04-01T15:19:43.501Z,98777.24
2019-04-01T15:22:27.924Z,98770.50
2019-04-01T15:25:03.799Z,98763.56
2019-04-01T15:27:42.447Z,98760.61
2019-04-01T15:30:16.621Z,98769.77
2019-04-01T15:32:54.911Z,98759.82
2019-04-01T15:35:26.385Z,98765.23
2019-04-01T15:38:02.875Z,98762.01
2019-04-01T15:40:35.788Z,98751.28
2019-04-01T15:43:13.179Z,98761.48
2019-04-01T15:46:03.902Z,98606.25
2019-04-01T15:48:38.783Z,98757.74
2019-04-01T15:51:18.662Z,98752.16
2019-04-01T15:53:52.559Z,98756.73
2019-04-01T15:56:26.573Z,98764.23
2019-04-01T15:59:08.097Z,98753.25
2019-04-01T16:01:50.484Z,98761.07
2019-04-01T16:04:37.138Z,98754.36
2019-04-01T16:07:22.449Z,98754.09
2019-04-01T16:09:59.226Z,98756.78
2019-04-01T16:12:35.230Z,98755.17
2019-04-01T16:15:26.027Z,98749.53
2019-04-01T16:18:12.117Z,98745.79
2019-04-01T16:20:52.637Z,98753.31
2019-04-01T16:23:37.803Z,98750.37
2019-04-01T16:26:15.793Z,98766.21
2019-04-01T16:28:58.253Z,98761.11
2019-04-01T16:31:34.131Z,98759.48
2019-04-01T16:34:08.570Z,98751.45
2019-04-01T16:36:47.236Z,98749.30
2019-04-01T16:39:45.666Z,98745.82
2019-04-01T16:42:21.216Z,98743.95
2019-04-01T16:45:05.356Z,98749.84
2019-04-01T16:48:09.444Z,98754.41
2019-04-01T16:50:44.410Z,98748.48
2019-04-01T16:53:31.498Z,98753.85
2019-04-01T16:56:07.170Z,98758.93
2019-04-01T16:58:47.882Z,98757.88
2019-04-01T17:01:25.228Z,98762.12
2019-04-01T17:04:37.638Z,98759.98
2019-04-01T17:07:13.864Z,98764.81
2019-04-01T17:09:59.854Z,98769.79
2019-04-01T17:13:04.664Z,98767.34
2019-04-01T17:15:44.538Z,98767.31
2019-04-01T17:18:20.668Z,98774.74
2019-04-01T17:21:02.531Z,98776.08
2019-04-01T17:23:41.913Z,98777.97
2019-04-01T17:26:45.107Z,98781.95
2019-04-01T17:29:53.475Z,98777.58
2019-04-01T17:32:29.248Z,98786.36
2019-04-01T17:35:02.142Z,98787.36
2019-04-01T17:37:49.218Z,98790.75
2019-04-01T17:40:33.207Z,98803.27
2019-04-01T17:43:24.628Z,98794.42
2019-04-01T17:46:06.864Z,98789.59
2019-04-01T17:48:42.968Z,98782.36
2019-04-01T17:51:17.263Z,98782.36
2019-04-01T17:54:00.881Z,98793.86
2019-04-01T17:56:35.519Z,98796.75
2019-04-01T18:00:04.562Z,98800.19
2019-04-01T18:02:47.425Z,98796.68
2019-04-01T18:05:25.552Z,98800.31
2019-04-01T18:08:09.031Z,98804.09
2019-04-01T18:10:53.618Z,98808.03
2019-04-01T18:13:33.678Z,98809.90
2019-04-01T18:16:07.381Z,98808.83
2019-04-01T18:18:47.335Z,98813.34
2019-04-01T18:21:32.779Z,98819.74
2019-04-01T18:24:17.000Z,98816.98
2019-04-01T18:27:23.486Z,98826.50
2019-04-01T18:30:14.244Z,98823.45
2019-04-01T18:33:25.524Z,98839.61
2019-04-01T18:36:52.086Z,98839.61
2019-04-01T18:40:01.403Z,98846.19
2019-04-01T18:43:00.017Z,98846.86
2019-04-01T18:46:24.843Z,98857.48
2019-04-01T18:49:57.363Z,98854.14
2019-04-01T18:53:11.559Z,98862.78
2019-04-01T18:56:39.671Z,98864.73
2019-04-01T19:03:11.982Z,98863.45
2019-04-01T19:06:36.085Z,98863.45
2019-04-01T19:09:32.495Z,98865.76
2019-04-01T19:12:31.841Z,98869.95
2019-04-01T19:15:27.717Z,98870.17
2019-04-01T19:22:59.454Z,98868.91
2019-04-01T19:25:52.882Z,98869.02
2019-04-01T19:28:48.297Z,98878.73
2019-04-01T19:31:58.284Z,98874.59
2019-04-01T19:35:15.833Z,98864.25
2019-04-01T19:38:51.768Z,98870.66
2019-04-01T19:41:37.727Z,98870.66
2019-04-01T19:44:38.558Z,98881.95
2019-04-01T19:47:45.024Z,98876.39
2019-04-01T19:50:54.250Z,98881.86
2019-04-01T19:53:58.087Z,98880.19
2019-04-01T19:57:01.056Z,98883.80
2019-04-01T20:00:43.952Z,98890.36
2019-04-01T20:03:34.392Z,98890.39
2019-04-01T20:06:59.980Z,98886.50
2019-04-01T20:10:18.440Z,98887.13
2019-04-01T20:12:50.914Z,98896.47
2019-04-01T20:15:48.618Z,98896.37
2019-04-01T20:18:55.736Z,98899.03
2019-04-01T20:21:51.058Z,98895.23
2019-04-01T20:25:00.724Z,98898.06
2019-04-01T20:27:55.885Z,98889.91
2019-04-01T20:31:02.171Z,98894.48
2019-04-01T20:33:41.918Z,98894.94
2019-04-01T20:36:32.503Z,98887.09
2019-04-01T20:39:29.749Z,98886.03
2019-04-01T20:42:24.905Z,98657.83
2019-04-01T20:45:13.510Z,98872.16
2019-04-01T20:47:58.320Z,98870.05
2019-04-01T20:50:51.555Z,98867.13
2019-04-01T20:53:39.371Z,98866.66
2019-04-01T20:56:14.174Z,98856.32
2019-04-01T20:58:56.962Z,98867.02
2019-04-01T21:01:39.643Z,98841.45
2019-04-01T21:04:49.906Z,98836.81
2019-04-01T21:08:02.824Z,98838.02
2019-04-01T21:10:28.639Z,98836.56
2019-04-01T21:13:10.410Z,98837.75
2019-04-01T21:15:47.122Z,98835.09
2019-04-01T21:18:22.771Z,98833.91
2019-04-01T21:21:03.199Z,98829.81
2019-04-01T21:23:41.337Z,98819.72
2019-04-01T21:26:21.005Z,98825.42
2019-04-01T21:29:01.219Z,98821.42
2019-04-01T21:31:40.324Z,98818.39
2019-04-01T21:34:18.008Z,98816.38
2019-04-01T21:37:06.277Z,98811.91
2019-04-01T21:39:54.341Z,98811.25
2019-04-01T21:43:08.186Z,98818.38
2019-04-01T21:45:58.325Z,98809.47
2019-04-01T21:48:42.658Z,98805.30
2019-04-01T21:51:28.557Z,98814.97
2019-04-01T21:54:10.694Z,98807.70
2019-04-01T21:56:56.951Z,98808.58
2019-04-01T21:59:44.157Z,98804.02
2019-04-01T22:02:36.383Z,98801.36
2019-04-01T22:05:22.098Z,98803.14
2019-04-01T22:08:07.188Z,98803.14
2019-04-01T22:11:16.646Z,98806.38
2019-04-01T22:14:07.786Z,98806.48
2019-04-01T22:16:48.805Z,98802.82
2019-04-01T22:19:54.116Z,98807.00
2019-04-01T22:23:07.932Z,98804.86
2019-04-01T22:26:02.201Z,98802.55
2019-04-01T22:28:38.167Z,98797.52
2019-04-01T22:31:27.635Z,98793.99
2019-04-01T22:34:08.268Z,98790.92
2019-04-01T22:36:52.247Z,98792.71
2019-04-01T22:39:57.397Z,98791.68
2019-04-01T22:42:37.019Z,98787.73
2019-04-01T22:45:23.249Z,98792.59
2019-04-01T22:48:14.674Z,98778.83
2019-04-01T22:50:58.398Z,98777.20
2019-04-01T22:53:40.313Z,98774.78
2019-04-01T22:56:21.987Z,98770.89
2019-04-01T22:58:59.094Z,98766.96
2019-04-01T23:01:45.036Z,98765.75
2019-04-01T23:04:21.085Z,98762.11
2019-04-01T23:06:56.100Z,98755.23
2019-04-01T23:09:37.212Z,98740.09
2019-04-01T23:12:10.306Z,98746.74
2019-04-01T23:14:48.255Z,98760.03
2019-04-01T23:17:28.693Z,98751.52
2019-04-01T23:20:00.916Z,98746.59
2019-04-01T23:22:52.792Z,98746.68
2019-04-01T23:25:35.044Z,98743.16
2019-04-01T23:28:34.738Z,98735.18
2019-04-01T23:31:28.860Z,98732.46
2019-04-01T23:34:19.124Z,98745.48
2019-04-01T23:37:00.523Z,98727.70
2019-04-01T23:40:06.669Z,98726.08
2019-04-01T23:42:56.446Z,98732.38
2019-04-01T23:45:54.945Z,98732.01
2019-04-01T23:59:37.154Z,98754.52
